sensor_id;sensor_type;location;lat;lon;timestamp;P1;durP1;ratioP1;P2;durP2;ratioP2
66669;SDS011;53568;52.164;4.472;2023-08-21T00:02:17;2.96;;;2.89;;
66669;SDS011;53568;52.164;4.472;2023-08-21T00:04:43;3.20;;;3.12;;
66669;SDS011;53568;52.164;4.472;2023-08-21T00:07:08;2.76;;;2.68;;
66669;SDS011;53568;52.164;4.472;2023-08-21T00:09:35;3.01;;;2.93;;
66669;SDS011;53568;52.164;4.472;2023-08-21T00:12:01;2.86;;;2.82;;
66669;SDS011;53568;52.164;4.472;2023-08-21T00:14:26;3.33;;;3.21;;
66669;SDS011;53568;52.164;4.472;2023-08-21T00:16:52;3.10;;;2.97;;
66669;SDS011;53568;52.164;4.472;2023-08-21T00:19:17;2.94;;;2.86;;
66669;SDS011;53568;52.164;4.472;2023-08-21T00:21:43;3.03;;;2.95;;
66669;SDS011;53568;52.164;4.472;2023-08-21T00:24:08;2.91;;;2.86;;
66669;SDS011;53568;52.164;4.472;2023-08-21T00:26:34;3.10;;;3.06;;
66669;SDS011;53568;52.164;4.472;2023-08-21T00:28:59;3.04;;;2.97;;
66669;SDS011;53568;52.164;4.472;2023-08-21T00:31:25;3.37;;;3.28;;
66669;SDS011;53568;52.164;4.472;2023-08-21T00:33:50;3.31;;;3.20;;
66669;SDS011;53568;52.164;4.472;2023-08-21T00:36:16;3.12;;;3.06;;
66669;SDS011;53568;52.164;4.472;2023-08-21T00:38:41;2.86;;;2.76;;
66669;SDS011;53568;52.164;4.472;2023-08-21T00:41:08;2.99;;;2.89;;
66669;SDS011;53568;52.164;4.472;2023-08-21T00:43:34;2.89;;;2.86;;
66669;SDS011;53568;52.164;4.472;2023-08-21T00:45:59;2.94;;;2.94;;
66669;SDS011;53568;52.164;4.472;2023-08-21T00:48:25;2.88;;;2.88;;
66669;SDS011;53568;52.164;4.472;2023-08-21T00:50:50;2.73;;;2.70;;
66669;SDS011;53568;52.164;4.472;2023-08-21T00:53:16;2.90;;;2.89;;
66669;SDS011;53568;52.164;4.472;2023-08-21T00:55:43;2.86;;;2.82;;
66669;SDS011;53568;52.164;4.472;2023-08-21T00:58:11;2.75;;;2.75;;
66669;SDS011;53568;52.164;4.472;2023-08-21T01:00:38;2.78;;;2.74;;
66669;SDS011;53568;52.164;4.472;2023-08-21T01:03:04;2.82;;;2.75;;
66669;SDS011;53568;52.164;4.472;2023-08-21T01:05:29;2.71;;;2.69;;
66669;SDS011;53568;52.164;4.472;2023-08-21T01:08:02;2.95;;;2.90;;
66669;SDS011;53568;52.164;4.472;2023-08-21T01:16:22;2.94;;;2.94;;
66669;SDS011;53568;52.164;4.472;2023-08-21T01:18:49;3.12;;;3.06;;
66669;SDS011;53568;52.164;4.472;2023-08-21T01:21:16;3.18;;;3.06;;
66669;SDS011;53568;52.164;4.472;2023-08-21T01:23:41;2.95;;;2.84;;
66669;SDS011;53568;52.164;4.472;2023-08-21T01:26:08;2.76;;;2.68;;
66669;SDS011;53568;52.164;4.472;2023-08-21T01:28:34;3.43;;;3.37;;
66669;SDS011;53568;52.164;4.472;2023-08-21T01:31:08;3.57;;;3.45;;
66669;SDS011;53568;52.164;4.472;2023-08-21T01:33:44;3.58;;;3.46;;
66669;SDS011;53568;52.164;4.472;2023-08-21T01:36:16;3.45;;;3.35;;
66669;SDS011;53568;52.164;4.472;2023-08-21T01:38:43;3.34;;;3.20;;
66669;SDS011;53568;52.164;4.472;2023-08-21T01:41:09;3.06;;;2.95;;
66669;SDS011;53568;52.164;4.472;2023-08-21T01:43:35;3.14;;;3.00;;
66669;SDS011;53568;52.164;4.472;2023-08-21T01:46:01;3.20;;;3.07;;
66669;SDS011;53568;52.164;4.472;2023-08-21T01:48:28;3.25;;;3.11;;
66669;SDS011;53568;52.164;4.472;2023-08-21T01:50:54;3.20;;;3.04;;
66669;SDS011;53568;52.164;4.472;2023-08-21T01:53:19;3.02;;;2.88;;
66669;SDS011;53568;52.164;4.472;2023-08-21T01:55:45;3.23;;;3.10;;
66669;SDS011;53568;52.164;4.472;2023-08-21T01:58:10;3.11;;;3.03;;
66669;SDS011;53568;52.164;4.472;2023-08-21T02:00:36;3.03;;;2.93;;
66669;SDS011;53568;52.164;4.472;2023-08-21T02:03:01;3.02;;;2.93;;
66669;SDS011;53568;52.164;4.472;2023-08-21T02:05:27;3.05;;;2.94;;
66669;SDS011;53568;52.164;4.472;2023-08-21T02:07:52;2.82;;;2.74;;
66669;SDS011;53568;52.164;4.472;2023-08-21T02:10:18;2.98;;;2.88;;
66669;SDS011;53568;52.164;4.472;2023-08-21T02:12:43;2.78;;;2.69;;
66669;SDS011;53568;52.164;4.472;2023-08-21T02:15:09;2.70;;;2.61;;
66669;SDS011;53568;52.164;4.472;2023-08-21T02:17:35;2.88;;;2.77;;
66669;SDS011;53568;52.164;4.472;2023-08-21T02:20:00;3.12;;;3.01;;
66669;SDS011;53568;52.164;4.472;2023-08-21T02:22:26;2.73;;;2.64;;
66669;SDS011;53568;52.164;4.472;2023-08-21T02:24:53;2.93;;;2.82;;
66669;SDS011;53568;52.164;4.472;2023-08-21T02:27:18;2.64;;;2.56;;
66669;SDS011;53568;52.164;4.472;2023-08-21T02:29:44;2.70;;;2.61;;
66669;SDS011;53568;52.164;4.472;2023-08-21T02:32:09;2.77;;;2.68;;
66669;SDS011;53568;52.164;4.472;2023-08-21T02:34:35;2.59;;;2.56;;
66669;SDS011;53568;52.164;4.472;2023-08-21T02:37:01;2.40;;;2.39;;
66669;SDS011;53568;52.164;4.472;2023-08-21T02:39:28;2.44;;;2.44;;
66669;SDS011;53568;52.164;4.472;2023-08-21T02:41:53;2.65;;;2.56;;
66669;SDS011;53568;52.164;4.472;2023-08-21T02:44:19;2.79;;;2.66;;
66669;SDS011;53568;52.164;4.472;2023-08-21T02:46:44;2.80;;;2.69;;
66669;SDS011;53568;52.164;4.472;2023-08-21T02:49:10;2.82;;;2.71;;
66669;SDS011;53568;52.164;4.472;2023-08-21T02:51:35;2.97;;;2.86;;
66669;SDS011;53568;52.164;4.472;2023-08-21T02:54:01;3.01;;;2.90;;
66669;SDS011;53568;52.164;4.472;2023-08-21T02:56:26;2.88;;;2.79;;
66669;SDS011;53568;52.164;4.472;2023-08-21T02:58:52;3.11;;;3.01;;
66669;SDS011;53568;52.164;4.472;2023-08-21T03:01:17;2.85;;;2.78;;
66669;SDS011;53568;52.164;4.472;2023-08-21T03:03:43;2.85;;;2.75;;
66669;SDS011;53568;52.164;4.472;2023-08-21T03:06:09;3.20;;;3.07;;
66669;SDS011;53568;52.164;4.472;2023-08-21T03:08:34;2.90;;;2.77;;
66669;SDS011;53568;52.164;4.472;2023-08-21T03:11:00;2.89;;;2.78;;
66669;SDS011;53568;52.164;4.472;2023-08-21T03:13:25;2.96;;;2.88;;
66669;SDS011;53568;52.164;4.472;2023-08-21T03:15:51;2.77;;;2.71;;
66669;SDS011;53568;52.164;4.472;2023-08-21T03:18:16;3.10;;;3.04;;
66669;SDS011;53568;52.164;4.472;2023-08-21T03:20:45;3.10;;;3.08;;
66669;SDS011;53568;52.164;4.472;2023-08-21T03:23:12;2.88;;;2.83;;
66669;SDS011;53568;52.164;4.472;2023-08-21T03:25:38;3.13;;;3.05;;
66669;SDS011;53568;52.164;4.472;2023-08-21T03:28:03;3.39;;;3.31;;
66669;SDS011;53568;52.164;4.472;2023-08-21T03:30:29;3.26;;;3.18;;
66669;SDS011;53568;52.164;4.472;2023-08-21T03:32:54;3.23;;;3.16;;
66669;SDS011;53568;52.164;4.472;2023-08-21T03:35:20;3.14;;;3.07;;
66669;SDS011;53568;52.164;4.472;2023-08-21T03:37:45;3.60;;;3.50;;
66669;SDS011;53568;52.164;4.472;2023-08-21T03:40:11;3.49;;;3.47;;
66669;SDS011;53568;52.164;4.472;2023-08-21T03:42:36;3.10;;;3.05;;
66669;SDS011;53568;52.164;4.472;2023-08-21T03:45:02;2.95;;;2.91;;
66669;SDS011;53568;52.164;4.472;2023-08-21T03:47:30;3.16;;;3.11;;
66669;SDS011;53568;52.164;4.472;2023-08-21T03:49:55;2.92;;;2.90;;
66669;SDS011;53568;52.164;4.472;2023-08-21T03:52:21;3.54;;;3.46;;
66669;SDS011;53568;52.164;4.472;2023-08-21T03:54:46;3.68;;;3.64;;
66669;SDS011;53568;52.164;4.472;2023-08-21T03:57:12;4.48;;;4.48;;
66669;SDS011;53568;52.164;4.472;2023-08-21T03:59:37;4.32;;;4.32;;
66669;SDS011;53568;52.164;4.472;2023-08-21T04:02:03;4.49;;;4.49;;
66669;SDS011;53568;52.164;4.472;2023-08-21T04:04:28;4.27;;;4.27;;
66669;SDS011;53568;52.164;4.472;2023-08-21T04:06:54;4.51;;;4.51;;
66669;SDS011;53568;52.164;4.472;2023-08-21T04:09:19;4.45;;;4.45;;
66669;SDS011;53568;52.164;4.472;2023-08-21T04:11:45;3.61;;;3.61;;
66669;SDS011;53568;52.164;4.472;2023-08-21T04:14:10;3.74;;;3.74;;
66669;SDS011;53568;52.164;4.472;2023-08-21T04:16:36;3.55;;;3.55;;
66669;SDS011;53568;52.164;4.472;2023-08-21T04:19:01;3.81;;;3.81;;
66669;SDS011;53568;52.164;4.472;2023-08-21T04:21:27;3.91;;;3.91;;
66669;SDS011;53568;52.164;4.472;2023-08-21T04:23:52;4.24;;;4.24;;
66669;SDS011;53568;52.164;4.472;2023-08-21T04:26:18;3.99;;;3.96;;
66669;SDS011;53568;52.164;4.472;2023-08-21T04:28:45;3.82;;;3.82;;
66669;SDS011;53568;52.164;4.472;2023-08-21T04:31:10;3.86;;;3.86;;
66669;SDS011;53568;52.164;4.472;2023-08-21T04:33:36;4.21;;;4.21;;
66669;SDS011;53568;52.164;4.472;2023-08-21T04:36:02;3.75;;;3.75;;
66669;SDS011;53568;52.164;4.472;2023-08-21T04:38:27;3.91;;;3.91;;
66669;SDS011;53568;52.164;4.472;2023-08-21T04:40:53;3.79;;;3.79;;
66669;SDS011;53568;52.164;4.472;2023-08-21T04:43:18;3.87;;;3.87;;
66669;SDS011;53568;52.164;4.472;2023-08-21T04:45:47;3.74;;;3.73;;
66669;SDS011;53568;52.164;4.472;2023-08-21T04:48:14;4.52;;;4.46;;
66669;SDS011;53568;52.164;4.472;2023-08-21T04:50:40;4.92;;;4.73;;
66669;SDS011;53568;52.164;4.472;2023-08-21T04:53:05;4.57;;;4.46;;
66669;SDS011;53568;52.164;4.472;2023-08-21T04:55:31;4.47;;;4.34;;
66669;SDS011;53568;52.164;4.472;2023-08-21T04:57:56;4.62;;;4.56;;
66669;SDS011;53568;52.164;4.472;2023-08-21T05:00:22;6.29;;;6.29;;
66669;SDS011;53568;52.164;4.472;2023-08-21T05:02:47;4.80;;;4.80;;
66669;SDS011;53568;52.164;4.472;2023-08-21T05:05:13;4.49;;;4.49;;
66669;SDS011;53568;52.164;4.472;2023-08-21T05:07:38;4.02;;;4.02;;
66669;SDS011;53568;52.164;4.472;2023-08-21T05:10:04;4.42;;;4.41;;
66669;SDS011;53568;52.164;4.472;2023-08-21T05:12:30;4.24;;;4.21;;
66669;SDS011;53568;52.164;4.472;2023-08-21T05:14:55;4.53;;;4.49;;
66669;SDS011;53568;52.164;4.472;2023-08-21T05:17:21;4.91;;;4.90;;
66669;SDS011;53568;52.164;4.472;2023-08-21T05:19:46;4.40;;;4.40;;
66669;SDS011;53568;52.164;4.472;2023-08-21T05:22:12;4.45;;;4.45;;
66669;SDS011;53568;52.164;4.472;2023-08-21T05:24:37;4.30;;;4.30;;
66669;SDS011;53568;52.164;4.472;2023-08-21T05:27:03;4.24;;;4.24;;
66669;SDS011;53568;52.164;4.472;2023-08-21T05:29:29;4.13;;;4.13;;
66669;SDS011;53568;52.164;4.472;2023-08-21T05:31:55;4.13;;;4.12;;
66669;SDS011;53568;52.164;4.472;2023-08-21T05:34:20;3.96;;;3.93;;
66669;SDS011;53568;52.164;4.472;2023-08-21T05:36:46;3.92;;;3.92;;
66669;SDS011;53568;52.164;4.472;2023-08-21T05:39:11;3.77;;;3.77;;
66669;SDS011;53568;52.164;4.472;2023-08-21T05:41:37;3.89;;;3.89;;
66669;SDS011;53568;52.164;4.472;2023-08-21T05:44:04;4.28;;;4.27;;
66669;SDS011;53568;52.164;4.472;2023-08-21T05:46:30;3.96;;;3.91;;
66669;SDS011;53568;52.164;4.472;2023-08-21T05:48:55;4.97;;;4.84;;
66669;SDS011;53568;52.164;4.472;2023-08-21T05:51:20;4.51;;;4.42;;
66669;SDS011;53568;52.164;4.472;2023-08-21T05:53:46;4.32;;;4.29;;
66669;SDS011;53568;52.164;4.472;2023-08-21T05:56:11;4.39;;;4.39;;
66669;SDS011;53568;52.164;4.472;2023-08-21T05:58:37;4.30;;;4.30;;
66669;SDS011;53568;52.164;4.472;2023-08-21T06:01:02;4.55;;;4.55;;
66669;SDS011;53568;52.164;4.472;2023-08-21T06:03:28;4.37;;;4.37;;
66669;SDS011;53568;52.164;4.472;2023-08-21T06:05:53;4.08;;;4.08;;
66669;SDS011;53568;52.164;4.472;2023-08-21T06:08:19;4.41;;;4.32;;
66669;SDS011;53568;52.164;4.472;2023-08-21T06:10:44;4.20;;;4.17;;
66669;SDS011;53568;52.164;4.472;2023-08-21T06:13:10;4.45;;;4.34;;
66669;SDS011;53568;52.164;4.472;2023-08-21T06:15:35;4.46;;;4.43;;
66669;SDS011;53568;52.164;4.472;2023-08-21T06:18:01;4.45;;;4.44;;
66669;SDS011;53568;52.164;4.472;2023-08-21T06:20:26;4.84;;;4.77;;
66669;SDS011;53568;52.164;4.472;2023-08-21T06:22:52;4.79;;;4.76;;
66669;SDS011;53568;52.164;4.472;2023-08-21T06:25:17;5.02;;;4.99;;
66669;SDS011;53568;52.164;4.472;2023-08-21T06:27:44;4.87;;;4.87;;
66669;SDS011;53568;52.164;4.472;2023-08-21T06:30:10;4.82;;;4.82;;
66669;SDS011;53568;52.164;4.472;2023-08-21T06:32:36;4.84;;;4.84;;
66669;SDS011;53568;52.164;4.472;2023-08-21T06:35:01;4.68;;;4.65;;
66669;SDS011;53568;52.164;4.472;2023-08-21T06:37:28;5.13;;;5.11;;
66669;SDS011;53568;52.164;4.472;2023-08-21T06:39:53;5.01;;;5.00;;
66669;SDS011;53568;52.164;4.472;2023-08-21T06:42:19;5.32;;;5.32;;
66669;SDS011;53568;52.164;4.472;2023-08-21T06:44:44;5.51;;;5.51;;
66669;SDS011;53568;52.164;4.472;2023-08-21T06:47:10;5.29;;;5.29;;
66669;SDS011;53568;52.164;4.472;2023-08-21T06:49:35;4.81;;;4.81;;
66669;SDS011;53568;52.164;4.472;2023-08-21T06:52:01;5.08;;;5.06;;
66669;SDS011;53568;52.164;4.472;2023-08-21T06:54:28;5.03;;;4.98;;
66669;SDS011;53568;52.164;4.472;2023-08-21T06:56:53;5.22;;;5.17;;
66669;SDS011;53568;52.164;4.472;2023-08-21T06:59:19;4.91;;;4.90;;
66669;SDS011;53568;52.164;4.472;2023-08-21T07:01:44;4.66;;;4.66;;
66669;SDS011;53568;52.164;4.472;2023-08-21T07:04:10;4.62;;;4.62;;
66669;SDS011;53568;52.164;4.472;2023-08-21T07:06:35;4.49;;;4.43;;
66669;SDS011;53568;52.164;4.472;2023-08-21T07:09:01;4.91;;;4.75;;
66669;SDS011;53568;52.164;4.472;2023-08-21T07:11:26;4.49;;;4.49;;
66669;SDS011;53568;52.164;4.472;2023-08-21T07:13:52;4.66;;;4.63;;
66669;SDS011;53568;52.164;4.472;2023-08-21T07:16:17;4.31;;;4.31;;
66669;SDS011;53568;52.164;4.472;2023-08-21T07:18:43;4.55;;;4.55;;
66669;SDS011;53568;52.164;4.472;2023-08-21T07:21:08;4.43;;;4.42;;
66669;SDS011;53568;52.164;4.472;2023-08-21T07:23:34;5.04;;;4.76;;
66669;SDS011;53568;52.164;4.472;2023-08-21T07:26:00;4.48;;;4.41;;
66669;SDS011;53568;52.164;4.472;2023-08-21T07:28:27;4.44;;;4.26;;
66669;SDS011;53568;52.164;4.472;2023-08-21T07:30:59;4.52;;;4.23;;
66669;SDS011;53568;52.164;4.472;2023-08-21T07:33:25;4.08;;;3.87;;
66669;SDS011;53568;52.164;4.472;2023-08-21T07:36:02;4.17;;;3.99;;
66669;SDS011;53568;52.164;4.472;2023-08-21T07:38:30;4.07;;;3.80;;
66669;SDS011;53568;52.164;4.472;2023-08-21T07:41:02;4.45;;;4.10;;
66669;SDS011;53568;52.164;4.472;2023-08-21T07:43:28;4.91;;;4.43;;
66669;SDS011;53568;52.164;4.472;2023-08-21T07:45:54;4.47;;;3.96;;
66669;SDS011;53568;52.164;4.472;2023-08-21T07:48:19;4.39;;;3.89;;
66669;SDS011;53568;52.164;4.472;2023-08-21T07:50:54;3.97;;;3.51;;
66669;SDS011;53568;52.164;4.472;2023-08-21T07:53:19;4.23;;;3.75;;
66669;SDS011;53568;52.164;4.472;2023-08-21T07:55:45;4.11;;;3.72;;
66669;SDS011;53568;52.164;4.472;2023-08-21T07:58:11;3.63;;;3.28;;
66669;SDS011;53568;52.164;4.472;2023-08-21T08:00:37;3.90;;;3.49;;
66669;SDS011;53568;52.164;4.472;2023-08-21T08:03:04;3.81;;;3.51;;
66669;SDS011;53568;52.164;4.472;2023-08-21T08:05:30;3.62;;;3.31;;
66669;SDS011;53568;52.164;4.472;2023-08-21T08:07:56;3.55;;;3.23;;
66669;SDS011;53568;52.164;4.472;2023-08-21T08:10:23;3.95;;;3.54;;
66669;SDS011;53568;52.164;4.472;2023-08-21T08:12:51;3.83;;;3.44;;
66669;SDS011;53568;52.164;4.472;2023-08-21T08:15:20;3.30;;;2.95;;
66669;SDS011;53568;52.164;4.472;2023-08-21T08:17:46;3.46;;;3.12;;
66669;SDS011;53568;52.164;4.472;2023-08-21T08:20:12;3.28;;;2.96;;
66669;SDS011;53568;52.164;4.472;2023-08-21T08:22:39;2.91;;;2.64;;
66669;SDS011;53568;52.164;4.472;2023-08-21T08:25:05;3.38;;;3.06;;
66669;SDS011;53568;52.164;4.472;2023-08-21T08:27:31;3.23;;;2.89;;
66669;SDS011;53568;52.164;4.472;2023-08-21T08:29:57;3.29;;;2.93;;
66669;SDS011;53568;52.164;4.472;2023-08-21T08:32:23;3.22;;;2.87;;
66669;SDS011;53568;52.164;4.472;2023-08-21T08:34:48;3.44;;;3.06;;
66669;SDS011;53568;52.164;4.472;2023-08-21T08:37:14;3.06;;;2.79;;
66669;SDS011;53568;52.164;4.472;2023-08-21T08:39:39;2.79;;;2.64;;
66669;SDS011;53568;52.164;4.472;2023-08-21T08:42:05;3.02;;;2.76;;
66669;SDS011;53568;52.164;4.472;2023-08-21T08:44:31;3.10;;;2.83;;
66669;SDS011;53568;52.164;4.472;2023-08-21T08:47:00;2.89;;;2.65;;
66669;SDS011;53568;52.164;4.472;2023-08-21T08:49:26;2.90;;;2.64;;
66669;SDS011;53568;52.164;4.472;2023-08-21T08:51:53;2.84;;;2.62;;
66669;SDS011;53568;52.164;4.472;2023-08-21T08:54:19;2.96;;;2.71;;
66669;SDS011;53568;52.164;4.472;2023-08-21T08:56:45;2.66;;;2.41;;
66669;SDS011;53568;52.164;4.472;2023-08-21T08:59:11;2.91;;;2.60;;
66669;SDS011;53568;52.164;4.472;2023-08-21T09:01:37;2.93;;;2.64;;
66669;SDS011;53568;52.164;4.472;2023-08-21T09:04:03;2.84;;;2.58;;
66669;SDS011;53568;52.164;4.472;2023-08-21T09:06:29;2.63;;;2.43;;
66669;SDS011;53568;52.164;4.472;2023-08-21T09:08:57;2.45;;;2.28;;
66669;SDS011;53568;52.164;4.472;2023-08-21T09:11:23;2.56;;;2.35;;
66669;SDS011;53568;52.164;4.472;2023-08-21T09:13:50;2.43;;;2.19;;
66669;SDS011;53568;52.164;4.472;2023-08-21T09:16:17;2.41;;;2.20;;
66669;SDS011;53568;52.164;4.472;2023-08-21T09:18:51;2.27;;;2.06;;
66669;SDS011;53568;52.164;4.472;2023-08-21T09:21:19;2.68;;;2.42;;
66669;SDS011;53568;52.164;4.472;2023-08-21T09:23:46;2.61;;;2.32;;
66669;SDS011;53568;52.164;4.472;2023-08-21T09:26:20;2.82;;;2.53;;
66669;SDS011;53568;52.164;4.472;2023-08-21T09:28:47;2.66;;;2.39;;
66669;SDS011;53568;52.164;4.472;2023-08-21T09:31:13;2.48;;;2.27;;
66669;SDS011;53568;52.164;4.472;2023-08-21T09:33:39;2.34;;;2.16;;
66669;SDS011;53568;52.164;4.472;2023-08-21T09:36:05;2.42;;;2.26;;
66669;SDS011;53568;52.164;4.472;2023-08-21T09:38:33;2.24;;;2.08;;
66669;SDS011;53568;52.164;4.472;2023-08-21T09:40:59;2.28;;;2.08;;
66669;SDS011;53568;52.164;4.472;2023-08-21T09:43:24;1.98;;;1.93;;
66669;SDS011;53568;52.164;4.472;2023-08-21T09:45:51;2.02;;;1.97;;
66669;SDS011;53568;52.164;4.472;2023-08-21T09:48:21;2.15;;;2.05;;
66669;SDS011;53568;52.164;4.472;2023-08-21T09:50:48;1.93;;;1.93;;
66669;SDS011;53568;52.164;4.472;2023-08-21T09:53:16;1.78;;;1.78;;
66669;SDS011;53568;52.164;4.472;2023-08-21T09:55:42;1.97;;;1.88;;
66669;SDS011;53568;52.164;4.472;2023-08-21T09:58:08;2.05;;;1.90;;
66669;SDS011;53568;52.164;4.472;2023-08-21T10:00:35;2.08;;;1.93;;
66669;SDS011;53568;52.164;4.472;2023-08-21T10:03:03;2.18;;;2.03;;
66669;SDS011;53568;52.164;4.472;2023-08-21T10:05:33;2.10;;;1.97;;
66669;SDS011;53568;52.164;4.472;2023-08-21T10:08:02;2.04;;;1.94;;
66669;SDS011;53568;52.164;4.472;2023-08-21T10:10:31;1.93;;;1.84;;
66669;SDS011;53568;52.164;4.472;2023-08-21T10:12:58;2.19;;;2.07;;
66669;SDS011;53568;52.164;4.472;2023-08-21T10:15:25;2.08;;;1.95;;
66669;SDS011;53568;52.164;4.472;2023-08-21T10:17:53;2.16;;;2.02;;
66669;SDS011;53568;52.164;4.472;2023-08-21T10:20:22;2.00;;;1.85;;
66669;SDS011;53568;52.164;4.472;2023-08-21T10:22:52;2.04;;;1.87;;
66669;SDS011;53568;52.164;4.472;2023-08-21T10:25:20;2.21;;;2.04;;
66669;SDS011;53568;52.164;4.472;2023-08-21T10:27:51;2.16;;;1.97;;
66669;SDS011;53568;52.164;4.472;2023-08-21T10:30:22;2.03;;;1.88;;
66669;SDS011;53568;52.164;4.472;2023-08-21T10:32:50;1.91;;;1.75;;
66669;SDS011;53568;52.164;4.472;2023-08-21T10:35:21;2.07;;;1.90;;
66669;SDS011;53568;52.164;4.472;2023-08-21T10:40:32;1.98;;;1.82;;
66669;SDS011;53568;52.164;4.472;2023-08-21T10:42:59;1.88;;;1.74;;
66669;SDS011;53568;52.164;4.472;2023-08-21T10:45:25;1.99;;;1.84;;
66669;SDS011;53568;52.164;4.472;2023-08-21T10:47:51;1.85;;;1.72;;
66669;SDS011;53568;52.164;4.472;2023-08-21T10:50:16;1.90;;;1.79;;
66669;SDS011;53568;52.164;4.472;2023-08-21T10:52:43;2.25;;;2.13;;
66669;SDS011;53568;52.164;4.472;2023-08-21T10:55:12;1.93;;;1.78;;
66669;SDS011;53568;52.164;4.472;2023-08-21T10:57:40;1.83;;;1.71;;
66669;SDS011;53568;52.164;4.472;2023-08-21T11:00:09;2.09;;;1.93;;
66669;SDS011;53568;52.164;4.472;2023-08-21T11:02:38;2.00;;;1.87;;
66669;SDS011;53568;52.164;4.472;2023-08-21T11:05:06;1.85;;;1.81;;
66669;SDS011;53568;52.164;4.472;2023-08-21T11:07:39;1.79;;;1.78;;
66669;SDS011;53568;52.164;4.472;2023-08-21T11:10:13;2.08;;;2.06;;
66669;SDS011;53568;52.164;4.472;2023-08-21T11:12:52;1.98;;;1.96;;
66669;SDS011;53568;52.164;4.472;2023-08-21T11:15:22;1.87;;;1.87;;
66669;SDS011;53568;52.164;4.472;2023-08-21T11:17:56;1.95;;;1.95;;
66669;SDS011;53568;52.164;4.472;2023-08-21T11:20:27;1.88;;;1.87;;
66669;SDS011;53568;52.164;4.472;2023-08-21T11:22:56;1.91;;;1.85;;
66669;SDS011;53568;52.164;4.472;2023-08-21T11:25:22;1.64;;;1.62;;
66669;SDS011;53568;52.164;4.472;2023-08-21T11:27:48;2.06;;;2.01;;
66669;SDS011;53568;52.164;4.472;2023-08-21T11:30:13;1.99;;;1.85;;
66669;SDS011;53568;52.164;4.472;2023-08-21T11:32:39;1.94;;;1.88;;
66669;SDS011;53568;52.164;4.472;2023-08-21T11:35:05;2.15;;;2.04;;
66669;SDS011;53568;52.164;4.472;2023-08-21T11:37:31;1.83;;;1.79;;
66669;SDS011;53568;52.164;4.472;2023-08-21T11:39:57;1.84;;;1.82;;
66669;SDS011;53568;52.164;4.472;2023-08-21T11:42:33;2.03;;;1.92;;
66669;SDS011;53568;52.164;4.472;2023-08-21T11:44:59;2.00;;;1.86;;
66669;SDS011;53568;52.164;4.472;2023-08-21T11:47:33;1.98;;;1.85;;
66669;SDS011;53568;52.164;4.472;2023-08-21T11:50:03;2.13;;;1.95;;
66669;SDS011;53568;52.164;4.472;2023-08-21T11:52:31;2.02;;;1.88;;
66669;SDS011;53568;52.164;4.472;2023-08-21T11:54:57;2.03;;;1.90;;
66669;SDS011;53568;52.164;4.472;2023-08-21T11:57:23;2.14;;;2.02;;
66669;SDS011;53568;52.164;4.472;2023-08-21T11:59:52;1.99;;;1.84;;
66669;SDS011;53568;52.164;4.472;2023-08-21T12:02:23;2.02;;;1.87;;
66669;SDS011;53568;52.164;4.472;2023-08-21T12:05:06;1.85;;;1.72;;
66669;SDS011;53568;52.164;4.472;2023-08-21T12:07:38;2.08;;;1.96;;
66669;SDS011;53568;52.164;4.472;2023-08-21T12:10:04;2.03;;;1.92;;
66669;SDS011;53568;52.164;4.472;2023-08-21T12:12:30;2.05;;;1.93;;
66669;SDS011;53568;52.164;4.472;2023-08-21T12:14:55;1.80;;;1.76;;
66669;SDS011;53568;52.164;4.472;2023-08-21T12:17:21;1.90;;;1.76;;
66669;SDS011;53568;52.164;4.472;2023-08-21T12:19:46;1.90;;;1.77;;
66669;SDS011;53568;52.164;4.472;2023-08-21T12:22:12;1.82;;;1.70;;
66669;SDS011;53568;52.164;4.472;2023-08-21T12:24:37;2.02;;;1.85;;
66669;SDS011;53568;52.164;4.472;2023-08-21T12:27:03;1.96;;;1.82;;
66669;SDS011;53568;52.164;4.472;2023-08-21T12:29:29;1.61;;;1.51;;
66669;SDS011;53568;52.164;4.472;2023-08-21T12:31:55;1.62;;;1.62;;
66669;SDS011;53568;52.164;4.472;2023-08-21T12:34:20;1.70;;;1.70;;
66669;SDS011;53568;52.164;4.472;2023-08-21T12:36:46;1.66;;;1.66;;
66669;SDS011;53568;52.164;4.472;2023-08-21T12:39:12;1.63;;;1.63;;
66669;SDS011;53568;52.164;4.472;2023-08-21T12:41:39;1.59;;;1.57;;
66669;SDS011;53568;52.164;4.472;2023-08-21T12:44:04;1.94;;;1.81;;
66669;SDS011;53568;52.164;4.472;2023-08-21T12:46:33;2.01;;;1.83;;
66669;SDS011;53568;52.164;4.472;2023-08-21T12:48:59;1.71;;;1.55;;
66669;SDS011;53568;52.164;4.472;2023-08-21T12:51:26;1.68;;;1.62;;
66669;SDS011;53568;52.164;4.472;2023-08-21T12:53:52;1.57;;;1.52;;
66669;SDS011;53568;52.164;4.472;2023-08-21T12:56:18;1.77;;;1.69;;
66669;SDS011;53568;52.164;4.472;2023-08-21T12:58:44;1.99;;;1.91;;
66669;SDS011;53568;52.164;4.472;2023-08-21T13:01:10;1.94;;;1.89;;
66669;SDS011;53568;52.164;4.472;2023-08-21T13:03:36;1.98;;;1.90;;
66669;SDS011;53568;52.164;4.472;2023-08-21T13:06:01;2.02;;;1.95;;
66669;SDS011;53568;52.164;4.472;2023-08-21T13:08:27;1.99;;;1.90;;
66669;SDS011;53568;52.164;4.472;2023-08-21T13:10:52;1.94;;;1.86;;
66669;SDS011;53568;52.164;4.472;2023-08-21T13:13:18;1.76;;;1.75;;
66669;SDS011;53568;52.164;4.472;2023-08-21T13:15:43;1.71;;;1.70;;
66669;SDS011;53568;52.164;4.472;2023-08-21T13:18:10;2.00;;;1.98;;
66669;SDS011;53568;52.164;4.472;2023-08-21T13:20:36;1.87;;;1.87;;
66669;SDS011;53568;52.164;4.472;2023-08-21T13:23:02;1.95;;;1.95;;
66669;SDS011;53568;52.164;4.472;2023-08-21T13:25:28;1.79;;;1.79;;
66669;SDS011;53568;52.164;4.472;2023-08-21T13:27:55;1.92;;;1.92;;
66669;SDS011;53568;52.164;4.472;2023-08-21T13:30:21;2.26;;;2.19;;
66669;SDS011;53568;52.164;4.472;2023-08-21T13:32:47;2.11;;;2.09;;
66669;SDS011;53568;52.164;4.472;2023-08-21T13:35:13;2.00;;;2.00;;
66669;SDS011;53568;52.164;4.472;2023-08-21T13:37:39;1.98;;;1.98;;
66669;SDS011;53568;52.164;4.472;2023-08-21T13:40:05;2.14;;;2.14;;
66669;SDS011;53568;52.164;4.472;2023-08-21T13:42:39;2.06;;;2.06;;
66669;SDS011;53568;52.164;4.472;2023-08-21T13:45:10;2.00;;;2.00;;
66669;SDS011;53568;52.164;4.472;2023-08-21T13:47:38;2.35;;;2.34;;
66669;SDS011;53568;52.164;4.472;2023-08-21T13:50:05;2.28;;;2.21;;
66669;SDS011;53568;52.164;4.472;2023-08-21T13:52:31;2.24;;;2.23;;
66669;SDS011;53568;52.164;4.472;2023-08-21T13:54:58;2.11;;;2.11;;
66669;SDS011;53568;52.164;4.472;2023-08-21T13:57:24;2.02;;;2.02;;
66669;SDS011;53568;52.164;4.472;2023-08-21T13:59:50;2.00;;;2.00;;
66669;SDS011;53568;52.164;4.472;2023-08-21T14:02:15;2.04;;;2.04;;
66669;SDS011;53568;52.164;4.472;2023-08-21T14:04:41;1.93;;;1.93;;
66669;SDS011;53568;52.164;4.472;2023-08-21T14:07:06;2.29;;;2.29;;
66669;SDS011;53568;52.164;4.472;2023-08-21T14:09:32;2.14;;;2.14;;
66669;SDS011;53568;52.164;4.472;2023-08-21T14:11:57;2.07;;;2.07;;
66669;SDS011;53568;52.164;4.472;2023-08-21T14:14:22;2.09;;;2.08;;
66669;SDS011;53568;52.164;4.472;2023-08-21T14:16:48;2.11;;;2.11;;
66669;SDS011;53568;52.164;4.472;2023-08-21T14:19:13;2.36;;;2.36;;
66669;SDS011;53568;52.164;4.472;2023-08-21T14:21:39;2.07;;;2.07;;
66669;SDS011;53568;52.164;4.472;2023-08-21T14:24:04;2.15;;;2.15;;
66669;SDS011;53568;52.164;4.472;2023-08-21T14:26:30;1.99;;;1.99;;
66669;SDS011;53568;52.164;4.472;2023-08-21T14:28:55;2.00;;;2.00;;
66669;SDS011;53568;52.164;4.472;2023-08-21T14:31:21;2.01;;;1.95;;
66669;SDS011;53568;52.164;4.472;2023-08-21T14:33:46;2.18;;;2.06;;
66669;SDS011;53568;52.164;4.472;2023-08-21T14:36:12;2.30;;;2.18;;
66669;SDS011;53568;52.164;4.472;2023-08-21T14:38:37;2.33;;;2.21;;
66669;SDS011;53568;52.164;4.472;2023-08-21T14:41:03;2.37;;;2.22;;
66669;SDS011;53568;52.164;4.472;2023-08-21T14:43:28;2.21;;;2.08;;
66669;SDS011;53568;52.164;4.472;2023-08-21T14:45:57;1.94;;;1.87;;
66669;SDS011;53568;52.164;4.472;2023-08-21T14:48:23;1.94;;;1.92;;
66669;SDS011;53568;52.164;4.472;2023-08-21T14:50:48;1.92;;;1.91;;
66669;SDS011;53568;52.164;4.472;2023-08-21T14:53:14;2.09;;;2.09;;